createdAt,value
2018-08-30T00:02:01.343Z,94.54
2018-08-30T00:04:29.694Z,94.89
2018-08-30T00:06:57.984Z,95.32
2018-08-30T00:09:26.449Z,95.05
2018-08-30T00:11:54.779Z,95.18
2018-08-30T00:14:23.497Z,95.21
2018-08-30T00:16:51.816Z,95.62
2018-08-30T00:19:20.214Z,95.86
2018-08-30T00:21:48.536Z,95.10
2018-08-30T00:24:17.000Z,95.95
2018-08-30T00:26:45.336Z,96.13
2018-08-30T00:29:13.659Z,96.08
2018-08-30T00:31:41.981Z,95.74
2018-08-30T00:34:10.300Z,95.99
2018-08-30T00:36:39.063Z,95.74
2018-08-30T00:39:08.726Z,94.90
2018-08-30T00:41:37.196Z,95.57
2018-08-30T00:44:05.680Z,95.70
2018-08-30T00:46:34.079Z,95.66
2018-08-30T00:49:02.404Z,95.64
2018-08-30T00:51:30.739Z,95.01
2018-08-30T00:53:59.948Z,95.60
2018-08-30T00:56:28.312Z,95.88
2018-08-30T00:58:56.643Z,95.95
2018-08-30T01:01:25.006Z,95.11
2018-08-30T01:03:53.323Z,95.13
2018-08-30T01:06:21.769Z,94.78
2018-08-30T01:08:50.098Z,95.27
2018-08-30T01:11:18.445Z,95.54
2018-08-30T01:13:46.793Z,95.39
2018-08-30T01:16:15.107Z,95.11
2018-08-30T01:18:43.472Z,95.46
2018-08-30T01:21:11.813Z,95.15
2018-08-30T01:23:40.176Z,94.99
2018-08-30T01:26:08.619Z,95.08
2018-08-30T01:28:36.937Z,95.75
2018-08-30T01:31:05.350Z,95.30
2018-08-30T01:33:34.289Z,95.48
2018-08-30T01:36:02.687Z,95.14
2018-08-30T01:38:31.008Z,95.36
2018-08-30T01:40:59.338Z,95.27
2018-08-30T01:43:27.686Z,95.40
2018-08-30T01:45:56.316Z,95.38
2018-08-30T01:48:24.640Z,94.97
2018-08-30T01:50:52.963Z,95.26
2018-08-30T01:53:21.267Z,95.09
2018-08-30T01:55:49.655Z,95.87
2018-08-30T01:58:17.992Z,95.26
2018-08-30T02:00:46.323Z,95.51
2018-08-30T02:03:14.597Z,95.38
2018-08-30T02:05:42.945Z,95.33
2018-08-30T02:08:11.322Z,94.94
2018-08-30T02:10:39.707Z,95.12
2018-08-30T02:13:08.021Z,95.02
2018-08-30T02:15:36.357Z,95.44
2018-08-30T02:18:04.720Z,94.99
2018-08-30T02:20:33.154Z,95.22
2018-08-30T02:23:01.478Z,95.67
2018-08-30T02:25:32.865Z,94.81
2018-08-30T02:28:01.181Z,95.51
2018-08-30T02:30:29.536Z,95.51
2018-08-30T02:32:57.861Z,94.79
2018-08-30T02:35:26.171Z,94.40
2018-08-30T02:37:54.513Z,94.81
2018-08-30T02:40:22.872Z,95.59
2018-08-30T02:42:51.333Z,95.05
2018-08-30T02:45:19.625Z,95.14
2018-08-30T02:47:48.034Z,95.02
2018-08-30T02:50:16.561Z,94.88
2018-08-30T02:52:45.073Z,95.48
2018-08-30T02:55:13.393Z,94.87
2018-08-30T02:57:41.742Z,95.43
2018-08-30T03:00:10.054Z,95.33
2018-08-30T03:02:38.393Z,95.23
2018-08-30T03:05:06.755Z,94.96
2018-08-30T03:07:35.142Z,95.18
2018-08-30T03:10:03.457Z,95.20
2018-08-30T03:12:31.785Z,95.13
2018-08-30T03:15:10.659Z,94.88
2018-08-30T03:17:39.070Z,95.34
2018-08-30T03:20:16.210Z,94.74
2018-08-30T03:22:45.299Z,95.21
2018-08-30T03:25:13.665Z,94.77
2018-08-30T03:27:41.974Z,94.56
2018-08-30T03:30:10.400Z,94.55
2018-08-30T03:32:38.792Z,94.91
2018-08-30T03:35:07.106Z,94.84
2018-08-30T03:37:35.524Z,94.28
2018-08-30T03:40:03.893Z,94.98
2018-08-30T03:42:32.224Z,95.02
2018-08-30T03:45:00.528Z,94.82
2018-08-30T03:47:28.870Z,94.11
2018-08-30T03:49:57.218Z,94.16
2018-08-30T03:52:25.579Z,94.24
2018-08-30T03:54:53.872Z,94.61
2018-08-30T03:57:22.225Z,94.04
2018-08-30T03:59:50.524Z,94.28
2018-08-30T04:02:18.857Z,94.71
2018-08-30T04:04:47.144Z,94.22
2018-08-30T04:07:15.491Z,94.13
2018-08-30T04:09:43.976Z,94.53
2018-08-30T04:12:12.273Z,94.36
2018-08-30T04:14:40.617Z,93.74
2018-08-30T04:17:08.959Z,94.44
2018-08-30T04:19:37.302Z,93.78
2018-08-30T04:22:06.663Z,93.50
2018-08-30T04:24:35.031Z,93.77
2018-08-30T04:27:03.534Z,93.90
2018-08-30T04:29:31.820Z,94.51
2018-08-30T04:32:00.183Z,94.55
2018-08-30T04:34:28.680Z,94.13
2018-08-30T04:36:56.993Z,93.81
2018-08-30T04:39:25.350Z,94.27
2018-08-30T04:41:53.656Z,94.14
2018-08-30T04:44:21.972Z,93.97
2018-08-30T04:46:50.255Z,93.79
2018-08-30T04:49:18.620Z,93.95
2018-08-30T04:51:46.937Z,93.77
2018-08-30T04:54:15.270Z,94.63
2018-08-30T04:56:43.673Z,94.48
2018-08-30T04:59:12.412Z,94.33
2018-08-30T05:01:40.744Z,94.54
2018-08-30T05:04:09.107Z,94.19
2018-08-30T05:06:37.401Z,94.50
2018-08-30T05:09:08.652Z,93.91
2018-08-30T05:11:36.980Z,94.42
2018-08-30T05:14:05.323Z,93.73
2018-08-30T05:16:33.800Z,93.90
2018-08-30T05:19:02.042Z,93.72
2018-08-30T05:21:30.346Z,94.51
2018-08-30T05:23:58.866Z,94.20
2018-08-30T05:26:27.238Z,93.79
2018-08-30T05:28:55.554Z,94.33
2018-08-30T05:31:23.877Z,94.36
2018-08-30T05:33:52.480Z,93.92
2018-08-30T05:36:20.813Z,94.20
2018-08-30T05:38:49.172Z,94.06
2018-08-30T05:41:17.509Z,93.67
2018-08-30T05:43:45.823Z,93.67
2018-08-30T05:46:14.220Z,94.08
2018-08-30T05:48:42.562Z,93.52
2018-08-30T05:51:10.861Z,94.25
2018-08-30T05:53:39.194Z,94.01
2018-08-30T05:56:07.593Z,93.68
2018-08-30T05:58:35.932Z,94.11
2018-08-30T06:01:04.287Z,94.15
2018-08-30T06:03:32.630Z,93.96
2018-08-30T06:06:00.958Z,93.46
2018-08-30T06:08:29.320Z,93.95
2018-08-30T06:10:57.714Z,93.66
2018-08-30T06:13:26.056Z,93.61
2018-08-30T06:15:54.385Z,93.71
2018-08-30T06:18:23.173Z,93.72
2018-08-30T06:20:51.517Z,92.91
2018-08-30T06:23:19.879Z,92.75
2018-08-30T06:25:48.190Z,92.91
2018-08-30T06:28:16.525Z,92.87
2018-08-30T06:30:44.834Z,92.79
2018-08-30T06:33:13.151Z,92.89
2018-08-30T06:35:41.588Z,92.91
2018-08-30T06:38:09.906Z,93.33
2018-08-30T06:40:38.224Z,92.47
2018-08-30T06:43:06.551Z,92.59
2018-08-30T06:45:35.004Z,92.43
2018-08-30T06:48:03.505Z,92.71
2018-08-30T06:50:32.307Z,92.52
2018-08-30T06:53:00.633Z,92.34
2018-08-30T06:55:28.932Z,91.89
2018-08-30T06:57:57.257Z,92.00
2018-08-30T07:00:25.562Z,91.95
2018-08-30T07:02:53.864Z,91.21
2018-08-30T07:05:22.267Z,91.06
2018-08-30T07:07:50.711Z,91.07
2018-08-30T07:10:19.230Z,90.29
2018-08-30T07:12:47.536Z,90.48
2018-08-30T07:15:15.903Z,91.17
2018-08-30T07:17:44.182Z,91.14
2018-08-30T07:20:12.816Z,89.85
2018-08-30T07:22:41.117Z,90.05
2018-08-30T07:25:09.561Z,89.74
2018-08-30T07:27:37.936Z,90.26
2018-08-30T07:30:09.245Z,89.31
2018-08-30T07:32:37.604Z,89.19
2018-08-30T07:35:05.976Z,88.96
2018-08-30T07:37:34.323Z,88.64
2018-08-30T07:40:02.610Z,88.19
2018-08-30T07:42:31.011Z,87.84
2018-08-30T07:44:59.399Z,87.01
2018-08-30T07:47:28.204Z,87.45
2018-08-30T07:49:56.507Z,87.44
2018-08-30T07:52:24.859Z,86.64
2018-08-30T07:54:53.183Z,87.09
2018-08-30T07:57:21.652Z,86.44
2018-08-30T07:59:49.953Z,87.16
2018-08-30T08:02:18.494Z,86.12
2018-08-30T08:04:46.811Z,86.34
2018-08-30T08:07:15.200Z,84.83
2018-08-30T08:09:43.452Z,84.43
2018-08-30T08:12:11.963Z,84.52
2018-08-30T08:14:40.289Z,84.17
2018-08-30T08:17:08.596Z,83.18
2018-08-30T08:19:36.944Z,82.72
2018-08-30T08:22:05.299Z,81.45
2018-08-30T08:24:33.627Z,81.67
2018-08-30T08:27:01.992Z,81.73
2018-08-30T08:29:30.226Z,80.87
2018-08-30T08:31:58.527Z,79.80
2018-08-30T08:34:26.857Z,80.37
2018-08-30T08:36:55.164Z,79.02
2018-08-30T08:39:23.532Z,79.36
2018-08-30T08:41:51.856Z,78.24
2018-08-30T08:44:21.008Z,77.95
2018-08-30T08:46:49.304Z,76.79
2018-08-30T08:49:18.075Z,76.96
2018-08-30T08:51:46.367Z,76.93
2018-08-30T08:54:14.661Z,75.81
2018-08-30T08:56:42.988Z,74.92
2018-08-30T08:59:11.393Z,74.64
2018-08-30T09:01:39.840Z,74.62
2018-08-30T09:04:08.159Z,75.03
2018-08-30T09:06:36.516Z,74.64
2018-08-30T09:09:06.569Z,74.93
2018-08-30T09:11:34.914Z,75.06
2018-08-30T09:14:03.248Z,74.29
2018-08-30T09:16:31.659Z,73.43
2018-08-30T09:18:59.989Z,73.42
2018-08-30T09:21:28.283Z,72.59
2018-08-30T09:23:56.647Z,72.41
2018-08-30T09:26:25.058Z,70.71
2018-08-30T09:28:53.415Z,71.77
2018-08-30T09:31:21.697Z,70.46
2018-08-30T09:33:50.101Z,69.99
2018-08-30T09:36:18.329Z,69.26
2018-08-30T09:38:46.650Z,70.29
2018-08-30T09:41:14.945Z,68.72
2018-08-30T09:43:43.260Z,68.84
2018-08-30T09:46:11.580Z,68.62
2018-08-30T09:48:39.902Z,69.90
2018-08-30T09:51:08.188Z,68.66
2018-08-30T09:53:36.495Z,68.77
2018-08-30T09:56:04.861Z,68.70
2018-08-30T09:58:33.175Z,67.38
2018-08-30T10:02:07.947Z,66.20
2018-08-30T10:04:36.306Z,67.44
2018-08-30T10:07:04.564Z,66.06
2018-08-30T10:09:32.901Z,66.29
2018-08-30T10:12:01.196Z,67.67
2018-08-30T10:14:29.533Z,67.69
2018-08-30T10:16:57.880Z,66.54
2018-08-30T10:19:26.199Z,65.82
2018-08-30T10:21:54.573Z,65.56
2018-08-30T10:24:22.902Z,65.81
2018-08-30T10:26:51.226Z,64.62
2018-08-30T10:29:19.554Z,63.64
2018-08-30T10:31:47.846Z,65.33
2018-08-30T10:34:16.149Z,63.88
2018-08-30T10:36:44.528Z,64.91
2018-08-30T10:39:12.819Z,63.90
2018-08-30T10:41:41.148Z,64.21
2018-08-30T10:44:09.479Z,63.70
2018-08-30T10:46:37.799Z,63.80
2018-08-30T10:49:06.174Z,64.14
2018-08-30T10:51:34.472Z,63.96
2018-08-30T10:54:02.754Z,62.27
2018-08-30T10:56:31.071Z,62.00
2018-08-30T10:58:59.463Z,60.64
2018-08-30T11:01:27.791Z,61.96
2018-08-30T11:03:56.261Z,61.61
2018-08-30T11:06:24.613Z,62.04
2018-08-30T11:08:53.013Z,62.37
2018-08-30T11:11:21.305Z,62.67
2018-08-30T11:13:49.617Z,62.12
2018-08-30T11:16:18.003Z,62.18
2018-08-30T11:18:46.331Z,61.30
2018-08-30T11:21:14.620Z,60.96
2018-08-30T11:23:42.947Z,60.29
2018-08-30T11:26:11.350Z,59.39
2018-08-30T11:28:39.659Z,59.13
2018-08-30T11:31:07.975Z,57.92
2018-08-30T11:33:36.252Z,58.10
2018-08-30T11:36:04.588Z,55.62
2018-08-30T11:38:32.970Z,55.07
2018-08-30T11:41:01.266Z,55.81
2018-08-30T11:43:29.653Z,56.29
2018-08-30T11:45:58.171Z,57.36
2018-08-30T11:48:26.532Z,56.14
2018-08-30T11:50:54.857Z,56.13
2018-08-30T11:53:23.225Z,57.43
2018-08-30T11:55:51.576Z,57.69
2018-08-30T11:58:19.889Z,57.26
2018-08-30T12:00:48.214Z,57.48
2018-08-30T12:03:16.525Z,58.15
2018-08-30T12:05:44.857Z,59.00
2018-08-30T12:08:13.181Z,61.16
2018-08-30T12:10:41.502Z,60.65
2018-08-30T12:13:09.807Z,60.81
2018-08-30T12:15:38.140Z,60.83
2018-08-30T12:18:06.466Z,60.66
2018-08-30T12:20:34.839Z,60.17
2018-08-30T12:23:03.112Z,59.55
2018-08-30T12:25:31.443Z,59.05
2018-08-30T12:27:59.737Z,59.10
2018-08-30T12:30:28.106Z,58.14
2018-08-30T12:32:56.451Z,58.03
2018-08-30T12:35:24.860Z,58.09
2018-08-30T12:37:53.185Z,57.80
2018-08-30T12:40:21.609Z,58.71
2018-08-30T12:42:49.833Z,58.30
2018-08-30T12:45:18.186Z,56.40
2018-08-30T12:47:46.492Z,56.18
2018-08-30T12:50:14.983Z,56.11
2018-08-30T12:52:43.234Z,55.59
2018-08-30T12:55:11.653Z,53.51
2018-08-30T12:57:39.965Z,54.42
2018-08-30T13:00:08.305Z,53.49
2018-08-30T13:02:36.678Z,54.10
2018-08-30T13:05:05.134Z,55.18
2018-08-30T13:07:33.513Z,54.88
2018-08-30T13:10:01.953Z,54.29
2018-08-30T13:12:30.499Z,54.63
2018-08-30T13:14:58.829Z,54.50
2018-08-30T13:17:27.173Z,54.00
2018-08-30T13:19:55.420Z,54.67
2018-08-30T13:22:23.937Z,54.92
2018-08-30T13:24:52.381Z,55.47
2018-08-30T13:27:20.610Z,53.90
2018-08-30T13:29:48.923Z,54.96
2018-08-30T13:32:17.267Z,54.62
2018-08-30T13:34:45.701Z,54.59
2018-08-30T13:37:14.232Z,54.17
2018-08-30T13:39:42.767Z,53.35
2018-08-30T13:42:11.269Z,53.46
2018-08-30T13:44:39.597Z,51.79
2018-08-30T13:47:07.866Z,53.20
2018-08-30T13:49:35.963Z,53.89
2018-08-30T13:52:04.604Z,52.45
2018-08-30T13:54:32.997Z,52.83
2018-08-30T13:57:01.445Z,53.09
2018-08-30T13:59:29.879Z,53.15
2018-08-30T14:01:57.914Z,52.40
2018-08-30T14:04:26.272Z,53.34
2018-08-30T14:06:54.755Z,53.73
2018-08-30T14:09:23.062Z,53.64
2018-08-30T14:11:51.438Z,53.78
2018-08-30T14:14:19.591Z,53.02
2018-08-30T14:16:47.708Z,54.12
2018-08-30T14:19:16.105Z,54.50
2018-08-30T14:21:44.441Z,54.08
2018-08-30T14:24:12.754Z,54.12
2018-08-30T14:26:41.018Z,54.94
2018-08-30T14:29:09.738Z,55.09
2018-08-30T14:31:38.062Z,55.66
2018-08-30T14:34:06.666Z,55.64
2018-08-30T14:36:34.966Z,56.15
2018-08-30T14:39:03.554Z,55.52
2018-08-30T14:41:31.942Z,54.83
2018-08-30T14:44:00.180Z,54.80
2018-08-30T14:46:28.503Z,54.97
2018-08-30T14:48:56.805Z,54.87
2018-08-30T14:51:25.126Z,54.60
2018-08-30T14:53:53.642Z,54.68
2018-08-30T14:56:21.971Z,54.04
2018-08-30T14:58:50.284Z,52.79
2018-08-30T15:01:18.889Z,54.09
2018-08-30T15:03:47.221Z,55.15
2018-08-30T15:06:15.569Z,55.81
2018-08-30T15:08:43.954Z,56.65
2018-08-30T15:11:12.336Z,55.88
2018-08-30T15:13:40.628Z,55.87
2018-08-30T15:16:09.137Z,56.71
2018-08-30T15:18:37.426Z,55.92
2018-08-30T15:21:05.873Z,55.73
2018-08-30T15:23:34.708Z,55.42
2018-08-30T15:26:02.909Z,56.04
2018-08-30T15:28:31.253Z,56.22
2018-08-30T15:30:59.602Z,55.37
2018-08-30T15:33:27.868Z,54.21
2018-08-30T15:35:56.184Z,53.88
2018-08-30T15:38:24.536Z,53.98
2018-08-30T15:40:52.955Z,53.85
2018-08-30T15:43:21.304Z,53.80
2018-08-30T15:45:49.641Z,53.71
2018-08-30T15:48:18.117Z,55.62
2018-08-30T15:50:46.385Z,55.66
2018-08-30T15:53:14.888Z,54.82
2018-08-30T15:55:43.186Z,54.47
2018-08-30T15:58:11.518Z,54.92
2018-08-30T16:00:39.863Z,54.98
2018-08-30T16:03:08.189Z,55.30
2018-08-30T16:05:36.495Z,55.68
2018-08-30T16:08:04.855Z,56.07
2018-08-30T16:10:33.269Z,56.17
2018-08-30T16:13:01.711Z,56.48
2018-08-30T16:15:29.943Z,55.32
2018-08-30T16:17:58.302Z,55.25
2018-08-30T16:20:26.632Z,56.45
2018-08-30T16:23:28.805Z,56.12
2018-08-30T16:25:57.193Z,58.41
2018-08-30T16:28:26.408Z,60.10
2018-08-30T16:30:54.787Z,62.04
2018-08-30T16:33:23.283Z,62.60
2018-08-30T16:35:51.747Z,63.78
2018-08-30T16:38:20.098Z,66.07
2018-08-30T16:40:48.546Z,68.00
2018-08-30T16:43:16.867Z,68.99
2018-08-30T16:45:45.572Z,68.65
2018-08-30T16:48:14.162Z,69.68
2018-08-30T16:50:42.489Z,69.91
2018-08-30T16:53:10.936Z,68.75
2018-08-30T16:55:39.207Z,68.43
2018-08-30T16:58:07.558Z,68.59
2018-08-30T17:00:36.207Z,68.33
2018-08-30T17:03:04.725Z,68.08
2018-08-30T17:05:33.037Z,68.15
2018-08-30T17:08:01.338Z,68.09
2018-08-30T17:10:29.691Z,67.81
2018-08-30T17:12:58.556Z,67.96
2018-08-30T17:15:26.957Z,67.61
2018-08-30T17:17:55.597Z,67.49
2018-08-30T17:20:56.491Z,67.09
2018-08-30T17:23:24.807Z,67.79
2018-08-30T17:25:53.238Z,67.49
2018-08-30T17:28:21.579Z,67.54
2018-08-30T17:30:50.041Z,67.15
2018-08-30T17:33:18.270Z,67.48
2018-08-30T17:35:46.617Z,67.70
2018-08-30T17:38:14.951Z,68.31
2018-08-30T17:40:43.315Z,67.53
2018-08-30T17:43:11.732Z,67.56
2018-08-30T17:45:40.088Z,68.24
2018-08-30T17:48:08.414Z,68.01
2018-08-30T17:50:36.953Z,68.58
2018-08-30T17:53:05.115Z,68.65
2018-08-30T17:55:33.481Z,69.05
2018-08-30T17:58:01.933Z,68.74
2018-08-30T18:00:30.241Z,68.97
2018-08-30T18:02:58.581Z,68.71
2018-08-30T18:05:26.910Z,69.06
2018-08-30T18:07:55.344Z,69.31
2018-08-30T18:10:23.881Z,68.80
2018-08-30T18:12:52.229Z,69.96
2018-08-30T18:15:20.530Z,70.03
2018-08-30T18:17:48.857Z,70.60
2018-08-30T18:20:17.202Z,71.11
2018-08-30T18:22:45.498Z,71.47
2018-08-30T18:25:13.836Z,73.19
2018-08-30T18:27:42.121Z,72.22
2018-08-30T18:30:11.168Z,72.29
2018-08-30T18:32:39.501Z,73.88
2018-08-30T18:35:09.055Z,73.44
2018-08-30T18:37:37.492Z,73.57
2018-08-30T18:40:06.676Z,73.59
2018-08-30T18:42:35.012Z,73.46
2018-08-30T18:45:03.376Z,73.26
2018-08-30T18:47:31.672Z,72.34
2018-08-30T18:50:00.065Z,73.01
2018-08-30T18:52:28.412Z,72.66
2018-08-30T18:54:56.771Z,72.99
2018-08-30T18:57:25.068Z,73.19
2018-08-30T18:59:53.372Z,73.19
2018-08-30T19:02:21.692Z,72.80
2018-08-30T19:04:50.028Z,72.66
2018-08-30T19:07:18.329Z,72.97
2018-08-30T19:09:46.681Z,74.05
2018-08-30T19:12:15.346Z,73.62
2018-08-30T19:14:43.633Z,74.42
2018-08-30T19:17:17.421Z,74.96
2018-08-30T19:19:45.724Z,75.50
2018-08-30T19:22:14.052Z,75.50
2018-08-30T19:24:47.710Z,75.21
2018-08-30T19:27:16.089Z,75.35
2018-08-30T19:29:49.742Z,76.13
2018-08-30T19:32:18.029Z,76.91
2018-08-30T19:34:46.345Z,76.07
2018-08-30T19:37:14.682Z,75.30
2018-08-30T19:39:43.009Z,75.95
2018-08-30T19:42:11.297Z,75.03
2018-08-30T19:44:39.655Z,76.00
2018-08-30T19:47:07.964Z,75.40
2018-08-30T19:49:36.322Z,76.02
2018-08-30T19:52:04.625Z,75.54
2018-08-30T19:54:33.017Z,75.86
2018-08-30T19:57:01.327Z,75.21
2018-08-30T19:59:29.646Z,75.49
2018-08-30T20:01:57.939Z,74.94
2018-08-30T20:04:26.276Z,75.52
2018-08-30T20:06:54.571Z,75.25
2018-08-30T20:09:23.014Z,75.20
2018-08-30T20:11:51.263Z,75.82
2018-08-30T20:14:19.701Z,75.74
2018-08-30T20:16:48.018Z,75.19
2018-08-30T20:19:16.328Z,75.93
2018-08-30T20:21:44.684Z,75.46
2018-08-30T20:24:13.036Z,76.65
2018-08-30T20:26:41.358Z,76.16
2018-08-30T20:29:09.843Z,76.26
2018-08-30T20:31:38.446Z,77.10
2018-08-30T20:34:06.774Z,76.63
2018-08-30T20:36:35.079Z,77.34
2018-08-30T20:39:03.480Z,77.34
2018-08-30T20:41:31.774Z,77.44
2018-08-30T20:44:00.092Z,77.25
2018-08-30T20:46:28.407Z,77.04
2018-08-30T20:48:56.741Z,78.40
2018-08-30T20:51:25.048Z,77.78
2018-08-30T20:53:53.384Z,78.41
2018-08-30T20:56:28.361Z,78.69
2018-08-30T20:58:56.698Z,78.76
2018-08-30T21:01:25.155Z,78.51
2018-08-30T21:03:53.444Z,78.98
2018-08-30T21:06:21.803Z,79.90
2018-08-30T21:08:50.192Z,79.38
2018-08-30T21:11:18.528Z,79.65
2018-08-30T21:13:47.011Z,79.60
2018-08-30T21:16:15.285Z,80.55
2018-08-30T21:18:43.583Z,80.69
2018-08-30T21:21:11.935Z,80.81
2018-08-30T21:23:40.220Z,81.17
2018-08-30T21:26:08.817Z,81.67
2018-08-30T21:28:37.107Z,81.14
2018-08-30T21:31:05.605Z,81.35
2018-08-30T21:33:34.033Z,81.34
2018-08-30T21:36:02.360Z,81.76
2018-08-30T21:38:30.667Z,81.83
2018-08-30T21:40:59.003Z,82.22
2018-08-30T21:43:27.443Z,82.00
2018-08-30T21:45:55.800Z,82.20
2018-08-30T21:48:24.084Z,82.05
2018-08-30T21:50:52.396Z,82.45
2018-08-30T21:53:20.727Z,81.83
2018-08-30T21:55:49.067Z,82.39
2018-08-30T21:58:17.360Z,82.25
2018-08-30T22:00:45.687Z,82.35
2018-08-30T22:03:14.032Z,82.60
2018-08-30T22:05:42.857Z,82.80
2018-08-30T22:08:11.159Z,82.68
2018-08-30T22:10:39.467Z,82.97
2018-08-30T22:13:07.828Z,82.74
2018-08-30T22:15:36.132Z,82.75
2018-08-30T22:18:04.479Z,82.12
2018-08-30T22:20:32.843Z,81.47
2018-08-30T22:23:01.168Z,81.12
2018-08-30T22:25:29.534Z,80.62
2018-08-30T22:27:57.843Z,78.92
2018-08-30T22:30:26.212Z,78.38
2018-08-30T22:32:54.506Z,78.49
2018-08-30T22:35:22.845Z,77.74
2018-08-30T22:37:51.167Z,77.19
2018-08-30T22:40:19.529Z,76.96
2018-08-30T22:42:47.822Z,77.11
2018-08-30T22:45:16.124Z,76.59
2018-08-30T22:47:44.463Z,76.11
2018-08-30T22:50:12.766Z,75.58
2018-08-30T22:52:41.103Z,75.73
2018-08-30T22:55:09.379Z,75.70
2018-08-30T22:57:37.718Z,75.26
2018-08-30T23:00:06.054Z,75.01
2018-08-30T23:02:34.582Z,76.05
2018-08-30T23:05:02.928Z,75.68
2018-08-30T23:07:31.282Z,75.53
2018-08-30T23:09:59.844Z,76.85
2018-08-30T23:12:28.151Z,76.47
2018-08-30T23:14:56.444Z,75.77
2018-08-30T23:17:25.026Z,75.18
2018-08-30T23:19:53.324Z,74.98
2018-08-30T23:22:21.616Z,75.31
2018-08-30T23:24:50.364Z,75.74
2018-08-30T23:27:18.703Z,75.42
2018-08-30T23:29:47.107Z,75.19
2018-08-30T23:32:15.445Z,75.03
2018-08-30T23:34:43.722Z,75.07
2018-08-30T23:37:12.347Z,75.25
2018-08-30T23:39:40.811Z,75.29
2018-08-30T23:42:09.387Z,76.16
2018-08-30T23:44:37.697Z,76.43
2018-08-30T23:47:06.022Z,77.18
2018-08-30T23:49:34.328Z,76.81
2018-08-30T23:52:02.881Z,76.52
2018-08-30T23:54:31.200Z,76.42
2018-08-30T23:56:59.561Z,76.36
2018-08-30T23:59:39.193Z,75.70
